createdAt,value
2022-08-11T00:02:19.043Z,99149.47
2022-08-11T00:04:45.174Z,99138.22
2022-08-11T00:07:11.304Z,99141.50
2022-08-11T00:09:39.716Z,99139.59
2022-08-11T00:12:06.218Z,99142.09
2022-08-11T00:14:37.225Z,99134.63
2022-08-11T00:17:04.054Z,99138.59
2022-08-11T00:20:15.315Z,99140.63
2022-08-11T00:22:16.315Z,99145.75
2022-08-11T00:24:54.733Z,99140.72
2022-08-11T00:27:22.302Z,99135.00
2022-08-11T00:29:51.613Z,99143.25
2022-08-11T00:32:18.058Z,99139.44
2022-08-11T00:34:44.210Z,99145.06
2022-08-11T00:37:10.351Z,99142.59
2022-08-11T00:39:36.563Z,99141.94
2022-08-11T00:42:02.838Z,99145.00
2022-08-11T00:44:29.004Z,99146.38
2022-08-11T00:46:55.182Z,99146.94
2022-08-11T00:49:21.347Z,99140.47
2022-08-11T00:52:03.822Z,99137.03
2022-08-11T00:54:32.906Z,99138.69
2022-08-11T00:56:59.451Z,99129.84
2022-08-11T00:59:34.891Z,99139.16
2022-08-11T01:02:01.819Z,99139.00
2022-08-11T01:04:27.947Z,99148.56
2022-08-11T01:06:54.081Z,99142.84
2022-08-11T01:09:22.240Z,99140.66
2022-08-11T01:11:55.413Z,99138.06
2022-08-11T01:14:34.180Z,99130.53
2022-08-11T01:17:00.778Z,99126.09
2022-08-11T01:19:26.979Z,99132.56
2022-08-11T01:21:53.118Z,99123.41
2022-08-11T01:24:21.251Z,99127.56
2022-08-11T01:26:47.410Z,99124.81
2022-08-11T01:29:13.541Z,99122.00
2022-08-11T01:31:39.681Z,99124.50
2022-08-11T01:34:05.854Z,99126.69
2022-08-11T01:36:31.998Z,99129.63
2022-08-11T01:38:58.116Z,99130.06
2022-08-11T01:41:24.273Z,99131.69
2022-08-11T01:43:50.400Z,99130.72
2022-08-11T01:46:16.540Z,99135.75
2022-08-11T01:48:44.825Z,99123.34
2022-08-11T01:51:16.758Z,99128.44
2022-08-11T01:53:43.471Z,99124.56
2022-08-11T01:56:09.608Z,99116.31
2022-08-11T01:58:43.108Z,99132.44
2022-08-11T02:01:10.567Z,99129.13
2022-08-11T02:03:36.733Z,99128.94
2022-08-11T02:06:02.873Z,99131.09
2022-08-11T02:08:32.890Z,99129.88
2022-08-11T02:10:59.796Z,99127.19
2022-08-11T02:13:32.399Z,99133.59
2022-08-11T02:16:01.894Z,99132.41
2022-08-11T02:18:28.022Z,99130.09
2022-08-11T02:20:54.225Z,99130.06
2022-08-11T02:24:03.950Z,99116.03
2022-08-11T02:26:07.538Z,99128.16
2022-08-11T02:28:38.407Z,99125.88
2022-08-11T02:31:06.324Z,99128.41
2022-08-11T02:33:36.616Z,99129.03
2022-08-11T02:36:02.891Z,99131.53
2022-08-11T02:38:29.025Z,99126.53
2022-08-11T02:40:55.184Z,99120.78
2022-08-11T02:43:21.329Z,99116.00
2022-08-11T02:45:47.467Z,99116.41
2022-08-11T02:48:13.619Z,99120.97
2022-08-11T02:50:39.754Z,99117.06
2022-08-11T02:53:05.886Z,99111.88
2022-08-11T02:55:44.433Z,99113.34
2022-08-11T02:58:19.970Z,99117.28
2022-08-11T03:00:53.131Z,99110.84
2022-08-11T03:03:19.270Z,99124.28
2022-08-11T03:05:45.419Z,99126.16
2022-08-11T03:08:13.587Z,99117.91
2022-08-11T03:10:39.731Z,99128.22
2022-08-11T03:13:05.870Z,99126.78
2022-08-11T03:15:32.033Z,99124.31
2022-08-11T03:17:58.159Z,99126.34
2022-08-11T03:20:24.285Z,99129.72
2022-08-11T03:22:50.437Z,99131.97
2022-08-11T03:25:16.567Z,99134.47
2022-08-11T03:27:42.702Z,99132.22
2022-08-11T03:30:08.865Z,99120.84
2022-08-11T03:32:34.995Z,99125.63
2022-08-11T03:35:01.118Z,99116.34
2022-08-11T03:37:27.273Z,99123.97
2022-08-11T03:39:56.380Z,99138.03
2022-08-11T03:42:23.030Z,99130.16
2022-08-11T03:44:49.180Z,99128.91
2022-08-11T03:47:15.298Z,99130.16
2022-08-11T03:49:41.435Z,99130.78
2022-08-11T03:52:07.873Z,99126.25
2022-08-11T03:54:34.001Z,99133.09
2022-08-11T03:57:00.150Z,99125.84
2022-08-11T03:59:26.319Z,99121.47
2022-08-11T04:01:52.511Z,99127.72
2022-08-11T04:04:18.676Z,99127.69
2022-08-11T04:06:44.823Z,99120.25
2022-08-11T04:09:10.959Z,99121.72
2022-08-11T04:11:39.440Z,99127.50
2022-08-11T04:14:05.650Z,99122.16
2022-08-11T04:16:31.781Z,99121.91
2022-08-11T04:18:57.922Z,99116.78
2022-08-11T04:21:24.073Z,99119.03
2022-08-11T04:24:35.360Z,99120.47
2022-08-11T04:26:36.349Z,99124.84
2022-08-11T04:29:09.511Z,99131.03
2022-08-11T04:31:52.041Z,99119.44
2022-08-11T04:34:18.862Z,99121.72
2022-08-11T04:36:45.018Z,99119.03
2022-08-11T04:39:11.225Z,99115.53
2022-08-11T04:41:37.392Z,99115.72
2022-08-11T04:44:06.169Z,99117.19
2022-08-11T04:46:32.624Z,99121.53
2022-08-11T04:48:58.970Z,99126.47
2022-08-11T04:51:25.157Z,99126.69
2022-08-11T04:53:52.327Z,99130.41
2022-08-11T04:56:18.632Z,99123.78
2022-08-11T04:58:44.789Z,99130.59
2022-08-11T05:01:10.962Z,99127.09
2022-08-11T05:03:37.105Z,99127.72
2022-08-11T05:06:03.285Z,99123.56
2022-08-11T05:08:29.440Z,99125.41
2022-08-11T05:10:55.586Z,99131.03
2022-08-11T05:13:21.766Z,99137.22
2022-08-11T05:15:51.426Z,99135.13
2022-08-11T05:18:17.815Z,99126.41
2022-08-11T05:20:43.970Z,99130.56
2022-08-11T05:23:10.095Z,99128.94
2022-08-11T05:26:42.953Z,99130.16
2022-08-11T05:28:22.374Z,99124.97
2022-08-11T05:30:48.513Z,99129.75
2022-08-11T05:33:14.645Z,99138.63
2022-08-11T05:36:01.594Z,99144.00
2022-08-11T05:38:26.967Z,99133.47
2022-08-11T05:40:53.300Z,99148.34
2022-08-11T05:43:25.934Z,99143.78
2022-08-11T05:46:02.603Z,99150.41
2022-08-11T05:48:31.068Z,99145.84
2022-08-11T05:50:57.184Z,99149.78
2022-08-11T05:53:23.454Z,99159.06
2022-08-11T05:55:58.396Z,99153.28
2022-08-11T05:58:29.790Z,99151.22
2022-08-11T06:00:55.950Z,99152.47
2022-08-11T06:03:22.147Z,99156.38
2022-08-11T06:05:48.291Z,99145.63
2022-08-11T06:08:17.915Z,99151.00
2022-08-11T06:10:44.045Z,99152.22
2022-08-11T06:13:10.185Z,99155.31
2022-08-11T06:15:36.365Z,99145.38
2022-08-11T06:18:02.506Z,99151.38
2022-08-11T06:20:28.644Z,99153.06
2022-08-11T06:22:54.794Z,99141.44
2022-08-11T06:25:20.930Z,99139.91
2022-08-11T06:27:47.097Z,99147.34
2022-08-11T06:30:13.248Z,99142.81
2022-08-11T06:32:39.641Z,99147.31
2022-08-11T06:35:05.870Z,99146.03
2022-08-11T06:37:36.254Z,99146.78
2022-08-11T06:40:02.762Z,99143.63
2022-08-11T06:42:28.988Z,99142.09
2022-08-11T06:44:55.178Z,99140.66
2022-08-11T06:47:21.317Z,99144.97
2022-08-11T06:49:47.448Z,99138.53
2022-08-11T06:52:34.870Z,99149.63
2022-08-11T06:54:59.716Z,99146.41
2022-08-11T06:57:29.906Z,99142.97
2022-08-11T06:59:56.565Z,99148.31
2022-08-11T07:02:22.702Z,99147.19
2022-08-11T07:04:48.845Z,99149.38
2022-08-11T07:07:14.995Z,99146.00
2022-08-11T07:09:41.139Z,99150.53
2022-08-11T07:12:07.540Z,99152.59
2022-08-11T07:14:38.226Z,99150.03
2022-08-11T07:17:04.682Z,99151.00
2022-08-11T07:19:30.856Z,99146.97
2022-08-11T07:22:01.280Z,99149.16
2022-08-11T07:24:58.663Z,99153.88
2022-08-11T07:27:15.934Z,99153.13
2022-08-11T07:29:42.071Z,99144.50
2022-08-11T07:32:08.224Z,99142.88
2022-08-11T07:34:34.404Z,99140.72
2022-08-11T07:37:00.537Z,99146.63
2022-08-11T07:39:26.797Z,99138.22
2022-08-11T07:41:53.603Z,99151.75
2022-08-11T07:44:19.737Z,99141.81
2022-08-11T07:46:45.877Z,99135.03
2022-08-11T07:49:12.012Z,99142.56
2022-08-11T07:51:38.153Z,99137.75
2022-08-11T07:54:16.675Z,99135.75
2022-08-11T07:56:55.283Z,99133.75
2022-08-11T08:00:00.175Z,99136.75
2022-08-11T08:02:16.226Z,99141.31
2022-08-11T08:04:46.858Z,99143.91
2022-08-11T08:07:13.553Z,99133.31
2022-08-11T08:09:39.695Z,99137.31
2022-08-11T08:12:05.840Z,99143.19
2022-08-11T08:14:31.982Z,99138.47
2022-08-11T08:17:00.041Z,99140.22
2022-08-11T08:19:26.191Z,99144.91
2022-08-11T08:21:52.321Z,99141.63
2022-08-11T08:24:18.477Z,99148.59
2022-08-11T08:26:51.456Z,99150.66
2022-08-11T08:29:18.106Z,99152.03
2022-08-11T08:31:44.244Z,99142.13
2022-08-11T08:34:10.376Z,99144.09
2022-08-11T08:36:36.500Z,99142.66
2022-08-11T08:39:02.650Z,99140.13
2022-08-11T08:41:28.788Z,99143.03
2022-08-11T08:43:56.424Z,99150.78
2022-08-11T08:46:24.029Z,99146.84
2022-08-11T08:48:50.159Z,99148.84
2022-08-11T08:51:19.360Z,99142.91
2022-08-11T08:53:53.267Z,99136.75
2022-08-11T08:56:22.671Z,99146.59
2022-08-11T08:58:49.413Z,99140.88
2022-08-11T09:01:17.939Z,99143.41
2022-08-11T09:04:04.631Z,99144.66
2022-08-11T09:06:30.229Z,99150.63
2022-08-11T09:08:56.366Z,99145.41
2022-08-11T09:11:22.488Z,99142.75
2022-08-11T09:14:04.718Z,99145.03
2022-08-11T09:16:33.625Z,99145.69
2022-08-11T09:19:00.060Z,99151.25
2022-08-11T09:21:46.298Z,99143.75
2022-08-11T09:24:21.896Z,99138.47
2022-08-11T09:26:51.898Z,99139.34
2022-08-11T09:29:18.096Z,99130.94
2022-08-11T09:31:44.230Z,99145.25
2022-08-11T09:34:10.371Z,99136.91
2022-08-11T09:36:36.542Z,99149.91
2022-08-11T09:39:02.669Z,99149.84
2022-08-11T09:41:28.790Z,99142.50
2022-08-11T09:44:14.912Z,99130.38
2022-08-11T09:46:41.034Z,99135.56
2022-08-11T09:49:07.160Z,99132.78
2022-08-11T09:51:33.314Z,99127.97
2022-08-11T09:54:02.810Z,99121.13
2022-08-11T09:56:30.035Z,99114.84
2022-08-11T09:58:56.194Z,99119.31
2022-08-11T10:01:22.353Z,99110.94
2022-08-11T10:03:48.553Z,99107.44
2022-08-11T10:06:14.752Z,99114.88
2022-08-11T10:08:41.228Z,99122.22
2022-08-11T10:11:07.381Z,99111.91
2022-08-11T10:13:44.088Z,99111.97
2022-08-11T10:16:20.665Z,99117.19
2022-08-11T10:18:46.826Z,99112.53
2022-08-11T10:21:12.959Z,99107.13
2022-08-11T10:24:00.974Z,99093.84
2022-08-11T10:26:26.683Z,99105.28
2022-08-11T10:29:12.104Z,99100.72
2022-08-11T10:31:56.963Z,99095.63
2022-08-11T10:34:25.061Z,99106.00
2022-08-11T10:36:54.523Z,99098.69
2022-08-11T10:39:20.705Z,99098.44
2022-08-11T10:42:03.461Z,99103.03
2022-08-11T10:44:33.008Z,99094.38
2022-08-11T10:46:59.168Z,99099.91
2022-08-11T10:49:25.302Z,99102.91
2022-08-11T10:51:53.691Z,99102.06
2022-08-11T10:54:20.112Z,99090.38
2022-08-11T10:56:46.247Z,99081.94
2022-08-11T10:59:12.398Z,99089.56
2022-08-11T11:01:38.581Z,99074.56
2022-08-11T11:04:04.759Z,99074.03
2022-08-11T11:06:31.416Z,99067.50
2022-08-11T11:08:58.927Z,99074.34
2022-08-11T11:11:27.878Z,99072.19
2022-08-11T11:13:55.270Z,99064.06
2022-08-11T11:16:23.466Z,99069.56
2022-08-11T11:19:00.513Z,99058.38
2022-08-11T11:21:27.472Z,99053.50
2022-08-11T11:23:53.605Z,99052.72
2022-08-11T11:26:27.118Z,99053.81
2022-08-11T11:28:53.939Z,99052.41
2022-08-11T11:31:21.011Z,99049.97
2022-08-11T11:34:06.810Z,99048.34
2022-08-11T11:36:33.332Z,99042.91
2022-08-11T11:38:59.458Z,99053.25
2022-08-11T11:41:25.607Z,99036.38
2022-08-11T11:43:51.761Z,99037.19
2022-08-11T11:46:17.886Z,99033.38
2022-08-11T11:48:44.005Z,99040.47
2022-08-11T11:51:10.177Z,99031.47
2022-08-11T11:53:36.310Z,99025.19
2022-08-11T11:56:02.458Z,99022.47
2022-08-11T11:58:28.617Z,99021.91
2022-08-11T12:00:56.731Z,99016.47
2022-08-11T12:03:22.896Z,99016.19
2022-08-11T12:05:49.099Z,99021.16
2022-08-11T12:08:15.268Z,99020.00
2022-08-11T12:10:41.392Z,99013.75
2022-08-11T12:13:07.576Z,99006.69
2022-08-11T12:16:31.802Z,99009.41
2022-08-11T12:18:19.880Z,99016.75
2022-08-11T12:20:46.030Z,99015.66
2022-08-11T12:23:14.625Z,99005.59
2022-08-11T12:25:41.464Z,99002.03
2022-08-11T12:28:07.608Z,99003.69
2022-08-11T12:30:33.845Z,99001.50
2022-08-11T12:33:00.056Z,98994.13
2022-08-11T12:35:26.217Z,98995.16
2022-08-11T12:37:54.254Z,99003.06
2022-08-11T12:40:49.793Z,98990.50
2022-08-11T12:43:22.074Z,98989.41
2022-08-11T12:45:50.385Z,98984.00
2022-08-11T12:49:00.506Z,98978.28
2022-08-11T12:51:02.669Z,98986.19
2022-08-11T12:53:28.816Z,98974.75
2022-08-11T12:56:03.618Z,98963.56
2022-08-11T12:58:34.365Z,98971.72
2022-08-11T13:01:00.595Z,98959.91
2022-08-11T13:03:26.757Z,98963.97
2022-08-11T13:05:52.962Z,98964.19
2022-08-11T13:08:19.120Z,98961.00
2022-08-11T13:10:45.293Z,98959.94
2022-08-11T13:13:55.653Z,98955.78
2022-08-11T13:15:57.814Z,98952.50
2022-08-11T13:18:23.965Z,98936.94
2022-08-11T13:20:50.127Z,98949.97
2022-08-11T13:23:16.264Z,98952.81
2022-08-11T13:25:42.411Z,98953.94
2022-08-11T13:28:08.549Z,98951.69
2022-08-11T13:30:39.085Z,98938.56
2022-08-11T13:33:06.904Z,98939.56
2022-08-11T13:35:33.074Z,98938.75
2022-08-11T13:38:17.905Z,98939.31
2022-08-11T13:40:55.657Z,98930.88
2022-08-11T13:43:22.466Z,98930.09
2022-08-11T13:45:48.689Z,98926.28
2022-08-11T13:48:14.837Z,98934.88
2022-08-11T13:50:40.987Z,98928.25
2022-08-11T13:53:07.165Z,98924.19
2022-08-11T13:55:51.198Z,98917.63
2022-08-11T13:58:40.845Z,98904.13
2022-08-11T14:01:16.775Z,98908.69
2022-08-11T14:04:30.909Z,98903.59
2022-08-11T14:06:37.359Z,98904.13
2022-08-11T14:09:03.554Z,98902.38
2022-08-11T14:12:21.590Z,98906.13
2022-08-11T14:14:16.145Z,98911.88
2022-08-11T14:16:42.319Z,98915.63
2022-08-11T14:19:08.453Z,98913.38
2022-08-11T14:21:34.597Z,98901.28
2022-08-11T14:24:01.354Z,98910.47
2022-08-11T14:26:27.658Z,98912.75
2022-08-11T14:28:53.814Z,98904.75
2022-08-11T14:31:19.954Z,98906.03
2022-08-11T14:33:59.564Z,98907.41
2022-08-11T14:36:27.860Z,98901.34
2022-08-11T14:38:53.992Z,98897.72
2022-08-11T14:41:20.179Z,98898.69
2022-08-11T14:44:12.184Z,98894.53
2022-08-11T14:49:03.544Z,98899.28
2022-08-11T14:51:29.666Z,98891.09
2022-08-11T14:53:58.719Z,98886.84
2022-08-11T14:56:25.199Z,98884.97
2022-08-11T14:58:51.341Z,98878.56
2022-08-11T15:01:17.602Z,98878.28
2022-08-11T15:04:06.154Z,98880.44
2022-08-11T15:06:29.980Z,98885.41
2022-08-11T15:08:56.149Z,98877.22
2022-08-11T15:11:22.305Z,98871.66
2022-08-11T15:13:48.457Z,98864.72
2022-08-11T15:16:15.131Z,98874.88
2022-08-11T15:18:41.274Z,98864.31
2022-08-11T15:21:07.417Z,98870.00
2022-08-11T15:23:33.578Z,98859.19
2022-08-11T15:25:59.736Z,98856.31
2022-08-11T15:28:25.868Z,98859.06
2022-08-11T15:30:55.125Z,98864.09
2022-08-11T15:33:21.286Z,98854.22
2022-08-11T15:35:47.412Z,98859.06
2022-08-11T15:38:13.549Z,98856.09
2022-08-11T15:40:39.721Z,98856.50
2022-08-11T15:43:12.880Z,98857.09
2022-08-11T15:45:39.185Z,98851.47
2022-08-11T15:48:07.762Z,98848.59
2022-08-11T15:50:36.779Z,98845.53
2022-08-11T15:53:03.023Z,98846.28
2022-08-11T15:55:29.165Z,98842.63
2022-08-11T15:57:55.295Z,98849.06
2022-08-11T16:00:24.429Z,98846.94
2022-08-11T16:02:50.782Z,98840.50
2022-08-11T16:05:45.332Z,98842.72
2022-08-11T16:08:03.536Z,98838.50
2022-08-11T16:10:29.682Z,98841.56
2022-08-11T16:12:59.749Z,98832.69
2022-08-11T16:15:25.898Z,98828.69
2022-08-11T16:17:52.056Z,98831.50
2022-08-11T16:20:18.209Z,98835.16
2022-08-11T16:22:55.275Z,98823.50
2022-08-11T16:27:05.293Z,98835.19
2022-08-11T16:28:14.674Z,98814.78
2022-08-11T16:30:40.855Z,98831.84
2022-08-11T16:33:48.755Z,98819.69
2022-08-11T16:35:53.137Z,98824.19
2022-08-11T16:38:19.302Z,98821.13
2022-08-11T16:40:45.439Z,98822.47
2022-08-11T16:43:11.886Z,98813.47
2022-08-11T16:45:38.074Z,98818.19
2022-08-11T16:48:36.060Z,98820.06
2022-08-11T16:50:50.374Z,98821.19
2022-08-11T16:53:16.496Z,98812.13
2022-08-11T16:55:52.669Z,98814.66
2022-08-11T16:58:19.179Z,98816.53
2022-08-11T17:00:45.889Z,98821.38
2022-08-11T17:03:12.028Z,98818.72
2022-08-11T17:05:53.683Z,98818.44
2022-08-11T17:08:20.909Z,98821.00
2022-08-11T17:10:54.552Z,98817.56
2022-08-11T17:13:22.733Z,98810.53
2022-08-11T17:15:50.862Z,98815.34
2022-08-11T17:18:17.292Z,98816.69
2022-08-11T17:20:44.273Z,98811.41
2022-08-11T17:23:12.969Z,98814.00
2022-08-11T17:25:59.886Z,98805.75
2022-08-11T17:28:26.094Z,98798.16
2022-08-11T17:30:52.285Z,98801.69
2022-08-11T17:33:18.426Z,98800.72
2022-08-11T17:35:44.605Z,98804.75
2022-08-11T17:38:10.826Z,98796.41
2022-08-11T17:40:36.944Z,98802.25
2022-08-11T17:43:03.088Z,98800.19
2022-08-11T17:45:29.711Z,98808.25
2022-08-11T17:47:55.846Z,98806.44
2022-08-11T17:50:21.977Z,98800.22
2022-08-11T17:52:48.158Z,98808.91
2022-08-11T17:55:14.280Z,98814.25
2022-08-11T17:57:44.373Z,98805.41
2022-08-11T18:00:13.540Z,98805.13
2022-08-11T18:02:39.677Z,98807.63
2022-08-11T18:05:08.504Z,98801.97
2022-08-11T18:07:39.244Z,98811.13
2022-08-11T18:10:05.506Z,98809.13
2022-08-11T18:12:31.670Z,98809.31
2022-08-11T18:14:58.114Z,98814.84
2022-08-11T18:17:24.236Z,98813.53
2022-08-11T18:19:50.439Z,98818.25
2022-08-11T18:22:16.612Z,98819.34
2022-08-11T18:24:42.738Z,98821.72
2022-08-11T18:27:08.879Z,98820.84
2022-08-11T18:29:42.270Z,98815.91
2022-08-11T18:32:08.604Z,98826.34
2022-08-11T18:34:34.735Z,98822.00
2022-08-11T18:37:00.892Z,98824.53
2022-08-11T18:39:27.085Z,98835.13
2022-08-11T18:41:53.258Z,98829.25
2022-08-11T18:44:19.402Z,98839.16
2022-08-11T18:46:45.530Z,98835.53
2022-08-11T18:49:15.771Z,98831.53
2022-08-11T18:51:42.205Z,98834.84
2022-08-11T18:54:08.378Z,98832.91
2022-08-11T18:56:34.526Z,98834.09
2022-08-11T18:59:00.674Z,98843.00
2022-08-11T19:01:26.865Z,98832.28
2022-08-11T19:03:53.033Z,98833.19
2022-08-11T19:06:39.170Z,98837.06
2022-08-11T19:09:05.831Z,98840.34
2022-08-11T19:11:31.993Z,98838.84
2022-08-11T19:13:58.104Z,98842.56
2022-08-11T19:16:24.274Z,98847.69
2022-08-11T19:18:50.433Z,98849.47
2022-08-11T19:21:16.566Z,98850.75
2022-08-11T19:23:42.703Z,98859.00
2022-08-11T19:26:08.860Z,98857.72
2022-08-11T19:28:34.993Z,98864.28
2022-08-11T19:31:01.117Z,98863.84
2022-08-11T19:33:57.320Z,98868.50
2022-08-11T19:36:13.402Z,98869.28
2022-08-11T19:38:39.569Z,98870.13
2022-08-11T19:41:05.743Z,98869.06
2022-08-11T19:43:31.889Z,98864.75
2022-08-11T19:45:58.519Z,98868.78
2022-08-11T19:48:32.696Z,98866.31
2022-08-11T19:50:58.976Z,98874.22
2022-08-11T19:53:25.146Z,98871.22
2022-08-11T19:55:51.322Z,98865.75
2022-08-11T19:58:17.466Z,98867.84
2022-08-11T20:00:43.625Z,98871.59
2022-08-11T20:03:09.781Z,98861.81
2022-08-11T20:05:35.905Z,98865.31
2022-08-11T20:08:02.070Z,98865.47
2022-08-11T20:10:28.196Z,98864.28
2022-08-11T20:12:54.335Z,98863.16
2022-08-11T20:15:20.520Z,98868.81
2022-08-11T20:17:46.866Z,98862.00
2022-08-11T20:20:13.031Z,98868.97
2022-08-11T20:22:39.650Z,98872.19
2022-08-11T20:25:05.986Z,98861.78
2022-08-11T20:27:32.118Z,98865.28
2022-08-11T20:29:58.277Z,98869.00
2022-08-11T20:32:24.410Z,98865.41
2022-08-11T20:34:50.539Z,98857.84
2022-08-11T20:37:19.182Z,98864.31
2022-08-11T20:39:45.355Z,98874.34
2022-08-11T20:42:11.495Z,98871.28
2022-08-11T20:44:37.636Z,98866.06
2022-08-11T20:47:03.765Z,98868.16
2022-08-11T20:49:41.307Z,98869.97
2022-08-11T20:52:14.967Z,98865.47
2022-08-11T20:54:44.723Z,98866.47
2022-08-11T20:57:12.867Z,98868.69
2022-08-11T20:59:49.979Z,98866.47
2022-08-11T21:02:22.930Z,98873.72
2022-08-11T21:04:54.762Z,98874.44
2022-08-11T21:07:28.507Z,98878.97
2022-08-11T21:09:58.076Z,98874.56
2022-08-11T21:12:25.305Z,98878.34
2022-08-11T21:14:55.014Z,98877.97
2022-08-11T21:17:26.872Z,98880.63
2022-08-11T21:19:59.752Z,98879.66
2022-08-11T21:22:33.249Z,98877.97
2022-08-11T21:24:59.386Z,98868.50
2022-08-11T21:27:25.513Z,98869.25
2022-08-11T21:29:51.672Z,98872.13
2022-08-11T21:32:17.785Z,98867.88
2022-08-11T21:34:43.930Z,98868.22
2022-08-11T21:37:10.074Z,98872.41
2022-08-11T21:39:36.302Z,98875.59
2022-08-11T21:42:02.478Z,98871.91
2022-08-11T21:44:28.620Z,98867.75
2022-08-11T21:46:54.742Z,98871.66
2022-08-11T21:49:20.882Z,98871.34
2022-08-11T21:51:47.037Z,98866.53
2022-08-11T21:54:13.169Z,98866.69
2022-08-11T21:56:39.309Z,98870.72
2022-08-11T21:59:07.205Z,98868.25
2022-08-11T22:01:34.683Z,98864.66
2022-08-11T22:04:00.912Z,98862.09
2022-08-11T22:06:27.230Z,98859.72
2022-08-11T22:08:53.378Z,98860.41
2022-08-11T22:11:31.870Z,98861.94
2022-08-11T22:14:05.978Z,98858.06
2022-08-11T22:16:34.017Z,98865.38
2022-08-11T22:19:00.169Z,98866.94
2022-08-11T22:22:02.371Z,98869.91
2022-08-11T22:24:13.589Z,98868.03
2022-08-11T22:26:47.613Z,98862.06
2022-08-11T22:29:13.920Z,98863.38
2022-08-11T22:31:40.370Z,98863.44
2022-08-11T22:34:06.522Z,98865.50
2022-08-11T22:36:32.670Z,98860.09
2022-08-11T22:38:58.838Z,98864.81
2022-08-11T22:41:24.974Z,98869.50
2022-08-11T22:43:51.122Z,98860.22
2022-08-11T22:46:17.280Z,98868.03
2022-08-11T22:48:43.416Z,98868.84
2022-08-11T22:51:09.566Z,98863.50
2022-08-11T22:53:57.232Z,98860.44
2022-08-11T22:56:21.901Z,98864.19
2022-08-11T22:58:59.018Z,98866.56
2022-08-11T23:01:25.195Z,98863.19
2022-08-11T23:03:51.355Z,98855.22
2022-08-11T23:06:17.527Z,98866.94
2022-08-11T23:08:43.656Z,98865.41
2022-08-11T23:11:09.804Z,98857.16
2022-08-11T23:13:35.966Z,98865.41
2022-08-11T23:16:02.094Z,98860.16
2022-08-11T23:18:28.224Z,98865.63
2022-08-11T23:20:57.567Z,98859.09
2022-08-11T23:23:24.380Z,98851.19
2022-08-11T23:25:50.512Z,98861.09
2022-08-11T23:28:16.723Z,98859.59
2022-08-11T23:30:42.854Z,98866.06
2022-08-11T23:33:08.998Z,98856.91
2022-08-11T23:35:38.701Z,98863.25
2022-08-11T23:38:06.806Z,98853.03
2022-08-11T23:40:32.946Z,98853.72
2022-08-11T23:42:59.099Z,98850.03
2022-08-11T23:45:25.229Z,98853.22
2022-08-11T23:47:51.358Z,98848.63
2022-08-11T23:50:17.519Z,98850.03
2022-08-11T23:52:43.665Z,98849.78
2022-08-11T23:55:09.810Z,98842.75
2022-08-11T23:57:35.971Z,98835.78
